createdAt,value
2023-10-13T00:01:42.993Z,39.50
2023-10-13T00:04:29.766Z,39.40
2023-10-13T00:07:15.558Z,39.80
2023-10-13T00:10:01.293Z,39.80
2023-10-13T00:12:50.904Z,40.40
2023-10-13T00:15:45.995Z,40.50
2023-10-13T00:18:35.992Z,40.50
2023-10-13T00:21:32.644Z,40.50
2023-10-13T00:24:24.427Z,40.70
2023-10-13T00:27:42.337Z,40.80
2023-10-13T00:30:38.382Z,40.40
2023-10-13T00:33:24.298Z,40.90
2023-10-13T00:36:18.443Z,40.80
2023-10-13T00:39:08.257Z,40.80
2023-10-13T00:41:54.706Z,40.00
2023-10-13T00:44:43.050Z,40.10
2023-10-13T00:47:49.210Z,40.30
2023-10-13T00:50:37.724Z,41.50
2023-10-13T00:53:23.128Z,42.60
2023-10-13T00:56:09.797Z,42.40
2023-10-13T00:59:00.540Z,43.80
2023-10-13T01:01:46.440Z,44.20
2023-10-13T01:04:33.305Z,43.60
2023-10-13T01:07:23.571Z,43.80
2023-10-13T01:10:16.167Z,44.40
2023-10-13T01:13:04.848Z,44.40
2023-10-13T01:15:50.658Z,45.10
2023-10-13T01:18:48.906Z,46.00
2023-10-13T01:21:34.739Z,45.70
2023-10-13T01:24:26.645Z,45.80
2023-10-13T01:27:19.651Z,46.20
2023-10-13T01:30:24.209Z,46.30
2023-10-13T01:33:12.006Z,46.60
2023-10-13T01:36:00.269Z,46.40
2023-10-13T01:38:48.036Z,46.10
2023-10-13T01:41:33.522Z,46.70
2023-10-13T01:44:21.195Z,47.20
2023-10-13T01:47:10.296Z,47.50
2023-10-13T01:49:55.603Z,47.50
2023-10-13T01:52:43.320Z,48.20
2023-10-13T01:55:29.697Z,47.40
2023-10-13T01:58:16.632Z,47.80
2023-10-13T02:01:03.045Z,48.50
2023-10-13T02:03:50.008Z,48.80
2023-10-13T02:06:37.565Z,48.80
2023-10-13T02:09:30.770Z,48.60
2023-10-13T02:12:16.486Z,48.70
2023-10-13T02:15:02.826Z,49.00
2023-10-13T02:17:53.042Z,50.00
2023-10-13T02:20:47.051Z,49.20
2023-10-13T02:23:32.862Z,48.80
2023-10-13T02:26:31.662Z,48.60
2023-10-13T02:29:19.519Z,49.40
2023-10-13T02:32:05.981Z,49.50
2023-10-13T02:34:51.852Z,49.30
2023-10-13T02:37:37.338Z,49.70
2023-10-13T02:40:24.620Z,50.10
2023-10-13T02:43:10.398Z,50.20
2023-10-13T02:45:59.674Z,49.90
2023-10-13T02:48:47.404Z,50.30
2023-10-13T02:51:37.039Z,50.00
2023-10-13T02:54:23.190Z,51.10
2023-10-13T02:57:08.538Z,51.40
2023-10-13T03:00:00.014Z,53.30
2023-10-13T03:02:55.224Z,54.20
2023-10-13T03:05:41.333Z,53.10
2023-10-13T03:08:27.582Z,52.50
2023-10-13T03:11:15.039Z,51.80
2023-10-13T03:14:07.652Z,52.00
2023-10-13T03:17:07.579Z,51.60
2023-10-13T03:19:55.872Z,51.40
2023-10-13T03:22:42.355Z,51.70
2023-10-13T03:25:31.305Z,51.40
2023-10-13T03:28:19.731Z,51.40
2023-10-13T03:31:05.617Z,51.80
2023-10-13T03:33:58.037Z,51.50
2023-10-13T03:36:58.754Z,51.70
2023-10-13T03:39:46.860Z,51.00
2023-10-13T03:42:33.527Z,51.50
2023-10-13T03:45:19.909Z,51.40
2023-10-13T03:48:28.174Z,52.20
2023-10-13T03:51:17.153Z,51.80
2023-10-13T03:54:09.021Z,52.20
2023-10-13T03:56:57.979Z,51.80
2023-10-13T03:59:48.639Z,52.10
2023-10-13T04:02:34.937Z,52.00
2023-10-13T04:05:35.404Z,51.60
2023-10-13T04:08:41.402Z,51.70
2023-10-13T04:11:53.726Z,51.80
2023-10-13T04:14:45.088Z,52.00
2023-10-13T04:17:35.200Z,52.50
2023-10-13T04:20:29.356Z,53.20
2023-10-13T04:23:23.477Z,54.10
2023-10-13T04:26:10.874Z,54.30
2023-10-13T04:28:58.042Z,54.60
2023-10-13T04:31:58.733Z,54.50
2023-10-13T04:34:47.127Z,54.20
2023-10-13T04:37:49.295Z,54.50
2023-10-13T04:40:37.468Z,54.00
2023-10-13T04:43:38.407Z,54.00
2023-10-13T04:46:47.544Z,54.40
2023-10-13T04:49:36.337Z,54.10
2023-10-13T04:52:59.988Z,53.70
2023-10-13T04:56:08.520Z,54.40
2023-10-13T04:59:12.630Z,55.70
2023-10-13T05:01:58.285Z,55.90
2023-10-13T05:05:03.627Z,56.10
2023-10-13T05:08:08.366Z,55.80
2023-10-13T05:11:12.512Z,55.40
2023-10-13T05:14:16.652Z,55.80
2023-10-13T05:17:20.620Z,56.00
2023-10-13T05:20:25.359Z,55.50
2023-10-13T05:23:29.196Z,55.10
2023-10-13T05:26:33.227Z,55.50
2023-10-13T05:29:37.254Z,55.60
2023-10-13T05:32:41.278Z,55.50
2023-10-13T05:35:45.547Z,55.60
2023-10-13T05:38:49.367Z,55.50
2023-10-13T05:41:53.257Z,55.40
2023-10-13T05:44:48.406Z,55.40
2023-10-13T05:47:43.649Z,55.50
2023-10-13T05:50:29.434Z,55.50
2023-10-13T05:53:15.270Z,55.50
2023-10-13T05:56:23.692Z,55.40
2023-10-13T05:59:27.585Z,54.80
2023-10-13T06:02:32.585Z,54.90
2023-10-13T06:05:37.126Z,55.40
2023-10-13T06:08:40.948Z,54.60
2023-10-13T06:11:45.025Z,54.90
2023-10-13T06:14:48.826Z,55.00
2023-10-13T06:17:52.825Z,55.10
2023-10-13T06:20:59.716Z,55.10
2023-10-13T06:24:03.834Z,54.80
2023-10-13T06:27:08.268Z,55.50
2023-10-13T06:29:56.494Z,55.50
2023-10-13T06:32:41.865Z,55.20
2023-10-13T06:35:27.616Z,55.20
2023-10-13T06:38:22.179Z,55.00
2023-10-13T06:41:08.644Z,53.90
2023-10-13T06:44:06.610Z,53.70
2023-10-13T06:46:53.840Z,53.70
2023-10-13T06:49:44.372Z,52.90
2023-10-13T06:52:31.029Z,52.50
2023-10-13T06:55:25.275Z,52.50
2023-10-13T06:58:15.123Z,52.30
2023-10-13T07:01:00.932Z,52.50
2023-10-13T07:03:54.024Z,51.40
2023-10-13T07:06:49.079Z,51.60
2023-10-13T07:09:37.203Z,51.50
2023-10-13T07:12:28.944Z,51.20
2023-10-13T07:15:21.230Z,50.60
2023-10-13T07:18:07.378Z,50.30
2023-10-13T07:20:58.920Z,49.30
2023-10-13T07:24:01.892Z,49.30
2023-10-13T07:26:48.578Z,48.70
2023-10-13T07:29:37.453Z,49.00
2023-10-13T07:32:27.171Z,48.60
2023-10-13T07:35:20.902Z,47.60
2023-10-13T07:38:09.097Z,47.20
2023-10-13T07:40:54.773Z,47.10
2023-10-13T07:43:40.989Z,47.20
2023-10-13T07:46:32.642Z,47.10
2023-10-13T07:49:21.987Z,47.20
2023-10-13T07:52:21.664Z,46.50
2023-10-13T07:55:20.143Z,46.40
2023-10-13T07:58:09.087Z,45.20
2023-10-13T08:01:07.893Z,44.70
2023-10-13T08:04:10.911Z,44.20
2023-10-13T08:07:04.079Z,43.50
2023-10-13T08:09:53.042Z,42.40
2023-10-13T08:12:38.828Z,41.10
2023-10-13T08:15:33.459Z,40.30
2023-10-13T08:18:31.546Z,40.00
2023-10-13T08:21:24.134Z,37.40
2023-10-13T08:24:09.582Z,37.50
2023-10-13T08:26:58.970Z,34.90
2023-10-13T08:29:57.618Z,34.90
2023-10-13T08:33:00.558Z,34.00
2023-10-13T08:36:04.930Z,33.80
2023-10-13T08:38:53.304Z,30.30
2023-10-13T08:41:55.082Z,30.70
2023-10-13T08:44:53.450Z,30.80
2023-10-13T08:47:40.059Z,31.30
2023-10-13T08:50:44.037Z,30.30
2023-10-13T08:53:30.394Z,29.90
2023-10-13T08:56:16.438Z,29.10
2023-10-13T08:59:04.840Z,28.50
2023-10-13T09:02:00.865Z,27.40
2023-10-13T09:04:47.161Z,27.20
2023-10-13T09:07:38.108Z,26.10
2023-10-13T09:10:34.902Z,25.10
2023-10-13T09:13:22.226Z,23.80
2023-10-13T09:16:44.130Z,23.00
2023-10-13T09:19:38.294Z,22.30
2023-10-13T09:22:28.676Z,21.40
2023-10-13T09:25:16.975Z,19.60
2023-10-13T09:28:16.330Z,19.20
2023-10-13T09:31:01.933Z,19.60
2023-10-13T09:33:56.775Z,19.30
2023-10-13T09:36:42.523Z,17.00
2023-10-13T09:39:31.418Z,15.20
2023-10-13T09:42:19.440Z,14.60
2023-10-13T09:45:05.880Z,13.60
2023-10-13T09:47:54.166Z,13.30
2023-10-13T09:50:45.661Z,12.00
2023-10-13T09:53:33.263Z,12.10
2023-10-13T09:56:29.595Z,12.40
2023-10-13T09:59:19.505Z,11.10
2023-10-13T10:02:10.876Z,10.10
2023-10-13T10:05:13.828Z,10.80
2023-10-13T10:08:00.473Z,9.20
2023-10-13T10:11:12.041Z,8.10
2023-10-13T10:14:13.413Z,8.00
2023-10-13T10:17:09.586Z,5.80
2023-10-13T10:19:56.670Z,5.10
2023-10-13T10:22:49.497Z,5.00
2023-10-13T10:25:36.456Z,5.00
2023-10-13T10:28:22.242Z,5.00
2023-10-13T10:31:13.746Z,5.00
2023-10-13T10:33:59.667Z,5.00
2023-10-13T10:36:48.680Z,5.00
2023-10-13T10:39:47.236Z,5.00
2023-10-13T10:42:32.808Z,5.00
2023-10-13T10:45:23.315Z,5.00
2023-10-13T10:48:19.055Z,5.00
2023-10-13T10:51:30.783Z,5.20
2023-10-13T10:54:21.433Z,5.00
2023-10-13T10:57:12.934Z,5.00
2023-10-13T11:00:16.035Z,5.00
2023-10-13T11:03:02.591Z,5.00
2023-10-13T11:05:48.537Z,5.00
2023-10-13T11:08:34.494Z,5.00
2023-10-13T11:11:36.923Z,5.00
2023-10-13T11:14:30.373Z,5.00
2023-10-13T11:17:42.446Z,5.00
2023-10-13T11:20:34.587Z,5.00
2023-10-13T11:23:24.518Z,5.00
2023-10-13T11:26:09.812Z,5.00
2023-10-13T11:28:57.192Z,5.00
2023-10-13T11:31:43.136Z,5.00
2023-10-13T11:34:41.231Z,5.00
2023-10-13T11:37:38.521Z,5.00
2023-10-13T11:40:43.723Z,5.00
2023-10-13T11:43:29.253Z,5.00
2023-10-13T11:46:19.023Z,5.00
2023-10-13T11:49:14.879Z,5.00
2023-10-13T11:52:17.765Z,5.00
2023-10-13T11:55:03.944Z,5.00
2023-10-13T11:57:49.644Z,5.00
2023-10-13T12:01:02.734Z,5.00
2023-10-13T12:04:08.963Z,5.00
2023-10-13T12:07:12.989Z,5.00
2023-10-13T12:09:58.298Z,5.00
2023-10-13T12:12:48.883Z,5.00
2023-10-13T12:16:02.414Z,5.00
2023-10-13T12:18:54.697Z,5.00
2023-10-13T12:21:40.098Z,5.00
2023-10-13T12:24:37.759Z,5.00
2023-10-13T12:27:47.007Z,5.00
2023-10-13T12:30:50.531Z,5.00
2023-10-13T12:33:41.468Z,5.00
2023-10-13T12:36:32.614Z,5.00
2023-10-13T12:39:36.703Z,5.00
2023-10-13T12:42:40.667Z,5.00
2023-10-13T12:45:44.561Z,5.00
2023-10-13T12:48:49.708Z,5.00
2023-10-13T12:51:35.155Z,5.00
2023-10-13T12:54:25.309Z,5.00
2023-10-13T12:57:10.850Z,5.00
2023-10-13T12:59:56.636Z,5.00
2023-10-13T13:02:43.119Z,5.00
2023-10-13T13:05:32.623Z,5.00
2023-10-13T13:08:23.748Z,5.00
2023-10-13T13:11:09.144Z,5.00
2023-10-13T13:13:55.013Z,5.00
2023-10-13T13:16:40.755Z,5.00
2023-10-13T13:19:27.386Z,5.00
2023-10-13T13:22:13.624Z,5.00
2023-10-13T13:24:59.191Z,5.00
2023-10-13T13:27:44.866Z,5.00
2023-10-13T13:30:31.633Z,5.00
2023-10-13T13:33:17.683Z,5.00
2023-10-13T13:36:05.562Z,5.00
2023-10-13T13:38:52.473Z,5.00
2023-10-13T13:41:39.375Z,5.00
2023-10-13T13:44:37.081Z,5.00
2023-10-13T13:47:24.024Z,5.00
2023-10-13T13:50:18.067Z,5.00
2023-10-13T13:53:10.271Z,5.00
2023-10-13T13:55:55.585Z,5.00
2023-10-13T13:58:41.745Z,5.00
2023-10-13T14:01:27.593Z,5.00
2023-10-13T14:04:15.460Z,5.00
2023-10-13T14:07:01.397Z,5.00
2023-10-13T14:09:52.656Z,5.00
2023-10-13T14:12:43.331Z,5.00
2023-10-13T14:15:29.203Z,5.00
2023-10-13T14:18:18.868Z,5.00
2023-10-13T14:21:05.217Z,5.00
2023-10-13T14:23:52.954Z,5.00
2023-10-13T14:26:38.331Z,5.00
2023-10-13T14:29:28.001Z,5.00
2023-10-13T14:32:16.416Z,5.00
2023-10-13T14:35:12.367Z,5.00
2023-10-13T14:37:58.182Z,5.00
2023-10-13T14:40:43.862Z,5.00
2023-10-13T14:43:29.440Z,5.00
2023-10-13T14:46:19.312Z,5.00
2023-10-13T14:49:04.477Z,5.00
2023-10-13T14:51:51.072Z,5.00
2023-10-13T14:54:36.559Z,5.00
2023-10-13T14:57:25.757Z,5.00
2023-10-13T15:00:17.603Z,5.00
2023-10-13T15:03:05.149Z,5.00
2023-10-13T15:05:50.564Z,5.00
2023-10-13T15:08:36.256Z,5.00
2023-10-13T15:11:27.826Z,5.00
2023-10-13T15:14:14.572Z,5.00
2023-10-13T15:17:02.173Z,5.00
2023-10-13T15:19:47.924Z,5.00
2023-10-13T15:22:36.226Z,5.00
2023-10-13T15:25:44.631Z,5.00
2023-10-13T15:28:32.331Z,5.00
2023-10-13T15:31:36.109Z,5.00
2023-10-13T15:34:21.667Z,5.00
2023-10-13T15:37:07.199Z,5.00
2023-10-13T15:39:53.565Z,5.00
2023-10-13T15:42:42.436Z,5.00
2023-10-13T15:45:40.271Z,5.00
2023-10-13T15:48:26.491Z,5.00
2023-10-13T15:51:15.977Z,5.00
2023-10-13T15:54:01.614Z,5.00
2023-10-13T15:56:49.231Z,5.00
2023-10-13T15:59:38.161Z,5.00
2023-10-13T16:02:25.352Z,5.00
2023-10-13T16:05:10.899Z,5.00
2023-10-13T16:07:56.453Z,5.00
2023-10-13T16:10:42.625Z,5.00
2023-10-13T16:13:28.835Z,5.00
2023-10-13T16:16:24.362Z,5.00
2023-10-13T16:19:09.844Z,5.00
2023-10-13T16:21:55.840Z,5.00
2023-10-13T16:24:41.646Z,5.00
2023-10-13T16:27:26.940Z,5.00
2023-10-13T16:30:17.423Z,6.00
2023-10-13T16:33:03.890Z,6.10
2023-10-13T16:35:51.164Z,6.00
2023-10-13T16:38:40.165Z,6.10
2023-10-13T16:41:28.114Z,6.70
2023-10-13T16:44:14.008Z,7.50
2023-10-13T16:47:02.384Z,7.90
2023-10-13T16:49:48.805Z,9.30
2023-10-13T16:52:34.272Z,9.80
2023-10-13T16:55:21.152Z,9.90
2023-10-13T16:58:07.117Z,10.10
2023-10-13T17:00:55.364Z,11.30
2023-10-13T17:03:42.126Z,12.40
2023-10-13T17:06:28.217Z,13.90
2023-10-13T17:09:14.034Z,13.70
2023-10-13T17:11:59.193Z,14.00
2023-10-13T17:14:45.359Z,15.20
2023-10-13T17:17:30.714Z,14.90
2023-10-13T17:20:19.659Z,16.20
2023-10-13T17:23:08.028Z,16.70
2023-10-13T17:25:55.156Z,17.10
2023-10-13T17:28:41.237Z,17.90
2023-10-13T17:31:29.975Z,18.30
2023-10-13T17:34:18.281Z,18.90
2023-10-13T17:37:03.939Z,19.70
2023-10-13T17:39:50.515Z,19.10
2023-10-13T17:42:36.899Z,20.60
2023-10-13T17:45:22.510Z,21.40
2023-10-13T17:48:08.219Z,21.90
2023-10-13T17:50:53.649Z,22.20
2023-10-13T17:53:39.432Z,22.60
2023-10-13T17:56:25.026Z,24.20
2023-10-13T17:59:13.722Z,24.10
2023-10-13T18:01:59.205Z,24.50
2023-10-13T18:04:45.280Z,24.60
2023-10-13T18:07:30.774Z,25.30
2023-10-13T18:10:16.369Z,25.70
2023-10-13T18:13:01.939Z,25.60
2023-10-13T18:15:48.516Z,26.30
2023-10-13T18:18:34.031Z,26.40
2023-10-13T18:21:19.586Z,27.10
2023-10-13T18:24:05.494Z,27.20
2023-10-13T18:26:50.980Z,26.90
2023-10-13T18:29:38.506Z,27.60
2023-10-13T18:32:24.929Z,27.90
2023-10-13T18:35:14.024Z,28.30
2023-10-13T18:38:05.687Z,29.10
2023-10-13T18:40:57.827Z,28.80
2023-10-13T18:43:44.484Z,28.80
2023-10-13T18:46:30.542Z,28.80
2023-10-13T18:49:16.505Z,30.00
2023-10-13T18:52:02.767Z,29.40
2023-10-13T18:54:49.356Z,30.10
2023-10-13T18:57:35.147Z,30.80
2023-10-13T19:00:24.118Z,30.90
2023-10-13T19:03:09.780Z,30.10
2023-10-13T19:05:59.975Z,31.70
2023-10-13T19:08:46.896Z,32.00
2023-10-13T19:11:36.058Z,32.50
2023-10-13T19:14:21.469Z,32.00
2023-10-13T19:17:07.198Z,31.80
2023-10-13T19:19:52.493Z,32.70
2023-10-13T19:22:37.821Z,32.20
2023-10-13T19:25:27.208Z,32.40
2023-10-13T19:28:15.172Z,32.70
2023-10-13T19:31:00.625Z,33.00
2023-10-13T19:33:49.347Z,34.20
2023-10-13T19:36:36.846Z,34.20
2023-10-13T19:39:26.348Z,34.20
2023-10-13T19:42:11.867Z,33.40
2023-10-13T19:45:02.218Z,34.70
2023-10-13T19:47:49.768Z,33.60
2023-10-13T19:50:41.610Z,36.00
2023-10-13T19:53:29.224Z,36.70
2023-10-13T19:56:17.534Z,36.80
2023-10-13T19:59:03.607Z,36.40
2023-10-13T20:01:50.419Z,36.20
2023-10-13T20:04:39.092Z,35.60
2023-10-13T20:07:24.626Z,37.20
2023-10-13T20:10:10.932Z,37.80
2023-10-13T20:12:56.441Z,38.50
2023-10-13T20:15:42.686Z,38.20
2023-10-13T20:18:32.519Z,37.80
2023-10-13T20:21:18.476Z,38.20
2023-10-13T20:24:04.224Z,38.30
2023-10-13T20:26:49.665Z,38.60
2023-10-13T20:29:35.058Z,38.80
2023-10-13T20:32:20.514Z,38.30
2023-10-13T20:35:06.840Z,38.60
2023-10-13T20:37:55.413Z,39.10
2023-10-13T20:40:40.808Z,39.60
2023-10-13T20:43:26.459Z,40.90
2023-10-13T20:46:11.909Z,41.30
2023-10-13T20:48:57.733Z,41.10
2023-10-13T20:51:43.245Z,41.20
2023-10-13T20:54:31.832Z,41.50
2023-10-13T20:57:19.444Z,41.30
2023-10-13T21:00:09.750Z,41.50
2023-10-13T21:02:56.422Z,41.20
2023-10-13T21:05:49.356Z,40.80
2023-10-13T21:08:38.760Z,40.80
2023-10-13T21:11:24.524Z,41.10
2023-10-13T21:14:09.874Z,41.00
2023-10-13T21:16:55.917Z,41.40
2023-10-13T21:19:41.768Z,41.20
2023-10-13T21:22:28.468Z,41.60
2023-10-13T21:25:23.331Z,42.90
2023-10-13T21:28:10.045Z,42.60
2023-10-13T21:31:10.896Z,43.80
2023-10-13T21:33:56.936Z,43.20
2023-10-13T21:36:43.533Z,42.60
2023-10-13T21:39:45.470Z,42.60
2023-10-13T21:42:34.166Z,42.10
2023-10-13T21:45:20.108Z,42.20
2023-10-13T21:48:10.443Z,41.90
2023-10-13T21:50:56.563Z,42.60
2023-10-13T21:53:42.246Z,42.80
2023-10-13T21:56:31.132Z,43.00
2023-10-13T21:59:16.459Z,43.50
2023-10-13T22:02:02.185Z,43.70
2023-10-13T22:04:48.362Z,43.80
2023-10-13T22:07:35.280Z,44.50
2023-10-13T22:10:20.582Z,44.10
2023-10-13T22:13:08.326Z,44.20
2023-10-13T22:15:54.145Z,44.40
2023-10-13T22:18:49.736Z,43.90
2023-10-13T22:21:35.577Z,44.40
2023-10-13T22:24:21.961Z,44.50
2023-10-13T22:27:07.703Z,43.60
2023-10-13T22:29:53.715Z,42.60
2023-10-13T22:32:39.874Z,42.80
2023-10-13T22:35:26.446Z,42.90
2023-10-13T22:38:12.607Z,43.20
2023-10-13T22:40:58.603Z,43.40
2023-10-13T22:43:44.012Z,42.90
2023-10-13T22:46:30.180Z,42.70
2023-10-13T22:49:16.665Z,42.40
2023-10-13T22:52:02.143Z,42.00
2023-10-13T22:54:48.016Z,41.20
2023-10-13T22:57:33.612Z,41.70
2023-10-13T23:00:20.385Z,41.70
2023-10-13T23:03:09.851Z,41.50
2023-10-13T23:06:04.603Z,41.60
2023-10-13T23:08:52.474Z,42.10
2023-10-13T23:11:40.165Z,42.10
2023-10-13T23:14:26.957Z,42.20
2023-10-13T23:17:16.016Z,42.60
2023-10-13T23:20:01.619Z,43.20
2023-10-13T23:22:47.319Z,43.20
2023-10-13T23:25:33.557Z,44.10
2023-10-13T23:28:29.774Z,43.30
2023-10-13T23:31:24.285Z,43.20
2023-10-13T23:34:12.281Z,43.20
2023-10-13T23:37:02.423Z,43.70
2023-10-13T23:39:47.925Z,44.00
2023-10-13T23:42:53.393Z,43.40
2023-10-13T23:45:44.666Z,43.70
2023-10-13T23:48:34.654Z,44.10
2023-10-13T23:51:21.957Z,43.40
2023-10-13T23:54:18.454Z,43.60
2023-10-13T23:57:04.985Z,43.90
2023-10-13T23:59:56.585Z,44.00
